createdAt,value
2023-04-18T00:01:03.132Z,100667.91
2023-04-18T00:03:40.572Z,100665.44
2023-04-18T00:06:22.620Z,100666.69
2023-04-18T00:08:53.439Z,100659.00
2023-04-18T00:11:22.260Z,100660.63
2023-04-18T00:13:55.385Z,100661.81
2023-04-18T00:16:33.143Z,100659.00
2023-04-18T00:19:11.177Z,100655.38
2023-04-18T00:21:49.649Z,100666.66
2023-04-18T00:24:28.567Z,100658.56
2023-04-18T00:27:12.210Z,100662.19
2023-04-18T00:29:48.402Z,100652.94
2023-04-18T00:32:28.476Z,100654.56
2023-04-18T00:35:08.104Z,100656.16
2023-04-18T00:37:41.833Z,100653.72
2023-04-18T00:40:19.205Z,100650.91
2023-04-18T00:42:56.065Z,100652.53
2023-04-18T00:45:32.642Z,100647.69
2023-04-18T00:48:17.405Z,100647.25
2023-04-18T00:51:00.447Z,100638.00
2023-04-18T00:53:35.026Z,100642.03
2023-04-18T00:56:14.321Z,100643.22
2023-04-18T00:59:00.411Z,100644.84
2023-04-18T01:01:33.710Z,100638.34
2023-04-18T01:04:09.129Z,100641.22
2023-04-18T01:06:46.107Z,100650.50
2023-04-18T01:09:28.406Z,100644.88
2023-04-18T01:12:04.391Z,100647.72
2023-04-18T01:14:42.735Z,100645.34
2023-04-18T01:17:34.602Z,100640.09
2023-04-18T01:20:08.636Z,100644.09
2023-04-18T01:22:44.377Z,100644.09
2023-04-18T01:25:12.300Z,100635.63
2023-04-18T01:27:54.564Z,100632.00
2023-04-18T01:30:41.523Z,100638.44
2023-04-18T01:33:20.181Z,100624.31
2023-04-18T01:35:54.358Z,100627.50
2023-04-18T01:38:30.605Z,100630.34
2023-04-18T01:41:06.010Z,100620.25
2023-04-18T01:43:47.491Z,100619.03
2023-04-18T01:46:22.217Z,100621.06
2023-04-18T01:49:05.721Z,100615.00
2023-04-18T01:51:44.466Z,100621.41
2023-04-18T01:54:19.507Z,100612.97
2023-04-18T01:56:57.286Z,100611.78
2023-04-18T01:59:29.825Z,100614.16
2023-04-18T02:02:13.837Z,100614.16
2023-04-18T02:04:52.591Z,100622.22
2023-04-18T02:07:31.254Z,100612.13
2023-04-18T02:10:07.574Z,100617.75
2023-04-18T02:12:45.814Z,100608.50
2023-04-18T02:15:23.952Z,100617.31
2023-04-18T02:18:00.580Z,100613.31
2023-04-18T02:20:33.738Z,100611.28
2023-04-18T02:23:09.559Z,100618.16
2023-04-18T02:25:46.039Z,100611.66
2023-04-18T02:28:19.121Z,100602.41
2023-04-18T02:30:50.703Z,100604.41
2023-04-18T02:33:30.784Z,100603.59
2023-04-18T02:36:04.055Z,100605.63
2023-04-18T02:38:38.976Z,100606.81
2023-04-18T02:41:23.027Z,100608.47
2023-04-18T02:43:59.918Z,100607.63
2023-04-18T02:46:35.662Z,100613.28
2023-04-18T02:49:10.228Z,100608.03
2023-04-18T02:51:49.010Z,100607.22
2023-04-18T02:54:28.549Z,100607.19
2023-04-18T02:57:23.210Z,100610.84
2023-04-18T03:00:10.415Z,100599.13
2023-04-18T03:03:08.031Z,100604.78
2023-04-18T03:05:48.888Z,100605.19
2023-04-18T03:08:24.150Z,100604.78
2023-04-18T03:11:00.218Z,100607.59
2023-04-18T03:13:42.966Z,100599.13
2023-04-18T03:16:19.328Z,100603.16
2023-04-18T03:18:52.987Z,100605.97
2023-04-18T03:21:31.020Z,100594.31
2023-04-18T03:24:11.961Z,100605.59
2023-04-18T03:26:41.251Z,100600.28
2023-04-18T03:29:20.609Z,100605.13
2023-04-18T03:31:59.873Z,100607.13
2023-04-18T03:34:36.483Z,100605.09
2023-04-18T03:37:17.544Z,100599.84
2023-04-18T03:39:54.713Z,100598.25
2023-04-18T03:42:32.438Z,100601.47
2023-04-18T03:45:13.780Z,100603.88
2023-04-18T03:47:49.330Z,100604.31
2023-04-18T03:50:26.221Z,100611.97
2023-04-18T03:53:08.975Z,100612.34
2023-04-18T03:55:50.580Z,100604.31
2023-04-18T03:58:41.486Z,100605.50
2023-04-18T04:01:10.061Z,100608.31
2023-04-18T04:03:46.042Z,100610.72
2023-04-18T04:06:19.505Z,100603.06
2023-04-18T04:08:57.244Z,100602.66
2023-04-18T04:11:30.413Z,100604.66
2023-04-18T04:14:06.997Z,100599.44
2023-04-18T04:16:46.097Z,100606.25
2023-04-18T04:19:23.086Z,100603.81
2023-04-18T04:22:01.906Z,100610.69
2023-04-18T04:24:39.598Z,100612.69
2023-04-18T04:27:22.831Z,100613.09
2023-04-18T04:29:58.256Z,100615.09
2023-04-18T04:32:33.927Z,100616.28
2023-04-18T04:35:04.942Z,100612.28
2023-04-18T04:37:46.809Z,100619.53
2023-04-18T04:40:41.528Z,100610.66
2023-04-18T04:43:19.338Z,100609.84
2023-04-18T04:45:58.022Z,100619.09
2023-04-18T04:48:25.947Z,100614.28
2023-04-18T04:50:59.684Z,100622.34
2023-04-18T04:53:40.946Z,100619.53
2023-04-18T04:56:17.840Z,100630.00
2023-04-18T04:58:54.258Z,100627.56
2023-04-18T05:01:30.646Z,100632.81
2023-04-18T05:04:02.417Z,100639.25
2023-04-18T05:06:40.255Z,100640.88
2023-04-18T05:09:16.682Z,100632.00
2023-04-18T05:11:51.850Z,100632.78
2023-04-18T05:14:23.310Z,100639.59
2023-04-18T05:16:58.657Z,100639.59
2023-04-18T05:19:43.369Z,100645.25
2023-04-18T05:22:29.800Z,100647.25
2023-04-18T05:25:03.049Z,100654.13
2023-04-18T05:27:45.662Z,100649.72
2023-04-18T05:30:16.240Z,100652.13
2023-04-18T05:32:49.903Z,100649.72
2023-04-18T05:35:21.098Z,100650.88
2023-04-18T05:37:54.093Z,100656.56
2023-04-18T05:40:30.319Z,100661.00
2023-04-18T05:43:03.558Z,100667.03
2023-04-18T05:45:37.508Z,100659.78
2023-04-18T05:48:05.902Z,100670.69
2023-04-18T05:50:39.451Z,100663.06
2023-04-18T05:53:10.138Z,100670.34
2023-04-18T05:55:41.135Z,100670.78
2023-04-18T05:58:12.059Z,100678.47
2023-04-18T06:00:43.189Z,100673.59
2023-04-18T06:03:11.567Z,100679.63
2023-04-18T06:05:43.165Z,100675.66
2023-04-18T06:08:13.810Z,100682.94
2023-04-18T06:10:41.424Z,100688.31
2023-04-18T06:13:15.039Z,100688.28
2023-04-18T06:15:48.467Z,100695.19
2023-04-18T06:18:21.682Z,100685.91
2023-04-18T06:20:51.753Z,100694.00
2023-04-18T06:23:22.857Z,100696.03
2023-04-18T06:25:56.777Z,100686.09
2023-04-18T06:28:32.802Z,100691.84
2023-04-18T06:31:04.884Z,100687.13
2023-04-18T06:33:37.836Z,100695.19
2023-04-18T06:36:11.403Z,100692.44
2023-04-18T06:38:47.660Z,100692.44
2023-04-18T06:41:21.471Z,100697.34
2023-04-18T06:44:04.220Z,100693.31
2023-04-18T06:46:37.942Z,100694.09
2023-04-18T06:49:11.138Z,100690.47
2023-04-18T06:51:40.212Z,100695.31
2023-04-18T06:54:14.667Z,100692.09
2023-04-18T06:56:48.794Z,100698.50
2023-04-18T06:59:17.693Z,100704.19
2023-04-18T07:01:48.235Z,100700.53
2023-04-18T07:04:16.435Z,100702.56
2023-04-18T07:06:45.825Z,100705.81
2023-04-18T07:09:23.745Z,100713.06
2023-04-18T07:12:03.295Z,100700.53
2023-04-18T07:14:36.814Z,100700.94
2023-04-18T07:17:14.117Z,100706.59
2023-04-18T07:19:42.785Z,100704.56
2023-04-18T07:22:14.639Z,100706.97
2023-04-18T07:24:54.627Z,100711.00
2023-04-18T07:27:27.930Z,100708.59
2023-04-18T07:29:58.620Z,100713.03
2023-04-18T07:32:44.349Z,100709.00
2023-04-18T07:35:18.058Z,100715.88
2023-04-18T07:37:50.984Z,100715.06
2023-04-18T07:40:22.680Z,100722.31
2023-04-18T07:42:53.567Z,100721.16
2023-04-18T07:45:38.467Z,100723.16
2023-04-18T07:48:11.485Z,100723.94
2023-04-18T07:50:44.998Z,100727.59
2023-04-18T07:53:17.218Z,100730.00
2023-04-18T07:55:55.282Z,100727.25
2023-04-18T07:58:24.153Z,100722.88
2023-04-18T08:01:04.098Z,100727.03
2023-04-18T08:03:40.500Z,100731.06
2023-04-18T08:06:13.446Z,100733.50
2023-04-18T08:08:50.464Z,100736.72
2023-04-18T08:11:30.098Z,100738.34
2023-04-18T08:14:11.957Z,100728.66
2023-04-18T08:16:45.777Z,100742.81
2023-04-18T08:19:24.856Z,100742.41
2023-04-18T08:22:10.861Z,100747.25
2023-04-18T08:24:39.469Z,100742.84
2023-04-18T08:27:11.138Z,100742.03
2023-04-18T08:29:42.364Z,100756.59
2023-04-18T08:32:16.394Z,100761.81
2023-04-18T08:34:47.691Z,100761.41
2023-04-18T08:37:15.437Z,100759.00
2023-04-18T08:39:45.635Z,100757.78
2023-04-18T08:42:19.621Z,100760.63
2023-04-18T08:44:52.386Z,100761.47
2023-04-18T08:47:21.108Z,100757.34
2023-04-18T08:49:49.077Z,100765.84
2023-04-18T08:52:17.384Z,100753.34
2023-04-18T08:54:49.493Z,100754.59
2023-04-18T08:57:18.441Z,100754.19
2023-04-18T08:59:50.866Z,100763.47
2023-04-18T09:02:28.689Z,100767.50
2023-04-18T09:04:59.742Z,100764.25
2023-04-18T09:07:33.688Z,100756.19
2023-04-18T09:10:04.864Z,100767.88
2023-04-18T09:12:50.720Z,100769.09
2023-04-18T09:15:23.814Z,100753.34
2023-04-18T09:17:56.555Z,100754.94
2023-04-18T09:20:35.329Z,100756.16
2023-04-18T09:23:11.371Z,100753.72
2023-04-18T09:25:45.282Z,100751.72
2023-04-18T09:28:23.370Z,100758.16
2023-04-18T09:30:54.604Z,100754.53
2023-04-18T09:33:33.115Z,100755.75
2023-04-18T09:36:32.513Z,100749.69
2023-04-18T09:39:10.200Z,100746.06
2023-04-18T09:41:44.130Z,100742.84
2023-04-18T09:44:20.624Z,100753.38
2023-04-18T09:46:54.514Z,100748.91
2023-04-18T09:49:28.398Z,100750.13
2023-04-18T09:52:01.963Z,100747.28
2023-04-18T09:54:41.163Z,100747.28
2023-04-18T09:57:17.136Z,100755.75
2023-04-18T10:00:17.535Z,100755.38
2023-04-18T10:03:06.078Z,100746.50
2023-04-18T10:05:40.632Z,100755.38
2023-04-18T10:08:16.635Z,100750.91
2023-04-18T10:10:47.282Z,100750.09
2023-04-18T10:13:19.084Z,100745.25
2023-04-18T10:15:56.311Z,100745.66
2023-04-18T10:18:25.654Z,100749.72
2023-04-18T10:21:05.821Z,100742.81
2023-04-18T10:23:45.942Z,100742.00
2023-04-18T10:26:19.251Z,100743.66
2023-04-18T10:29:01.006Z,100736.38
2023-04-18T10:31:29.822Z,100736.75
2023-04-18T10:36:31.297Z,100734.75
2023-04-18T10:39:22.618Z,100729.88
2023-04-18T10:41:51.638Z,100725.44
2023-04-18T10:44:23.077Z,100725.44
2023-04-18T10:47:03.975Z,100723.38
2023-04-18T10:49:34.748Z,100722.16
2023-04-18T10:52:08.793Z,100730.72
2023-04-18T10:54:57.707Z,100724.66
2023-04-18T10:57:41.552Z,100725.84
2023-04-18T11:00:11.917Z,100723.41
2023-04-18T11:02:53.948Z,100718.56
2023-04-18T11:05:25.600Z,100714.53
2023-04-18T11:07:59.436Z,100707.63
2023-04-18T11:10:30.732Z,100702.78
2023-04-18T11:13:04.805Z,100697.56
2023-04-18T11:15:36.820Z,100704.81
2023-04-18T11:18:10.351Z,100693.91
2023-04-18T11:20:41.745Z,100701.19
2023-04-18T11:23:27.231Z,100696.75
2023-04-18T11:26:01.906Z,100699.53
2023-04-18T11:28:35.166Z,100702.78
2023-04-18T11:31:11.372Z,100691.06
2023-04-18T11:33:47.443Z,100697.94
2023-04-18T11:36:19.360Z,100696.31
2023-04-18T11:38:50.651Z,100693.50
2023-04-18T11:41:18.762Z,100685.00
2023-04-18T11:43:50.412Z,100685.00
2023-04-18T11:46:18.529Z,100692.69
2023-04-18T11:48:50.435Z,100687.81
2023-04-18T11:51:39.985Z,100694.28
2023-04-18T11:54:39.691Z,100686.63
2023-04-18T11:57:20.655Z,100685.00
2023-04-18T12:00:13.195Z,100685.81
2023-04-18T12:02:54.452Z,100683.38
2023-04-18T12:05:31.982Z,100686.13
2023-04-18T12:08:13.697Z,100689.19
2023-04-18T12:10:50.757Z,100679.13
2023-04-18T12:13:27.082Z,100688.03
2023-04-18T12:15:55.641Z,100686.50
2023-04-18T12:18:26.575Z,100690.22
2023-04-18T12:21:02.006Z,100689.41
2023-04-18T12:23:37.282Z,100687.00
2023-04-18T12:26:22.951Z,100682.78
2023-04-18T12:28:57.057Z,100696.19
2023-04-18T12:31:28.958Z,100686.88
2023-04-18T12:34:14.593Z,100684.53
2023-04-18T12:36:52.814Z,100680.94
2023-04-18T12:39:28.274Z,100687.00
2023-04-18T12:41:57.893Z,100678.53
2023-04-18T12:44:29.486Z,100687.34
2023-04-18T12:47:02.256Z,100688.16
2023-04-18T12:49:34.265Z,100686.91
2023-04-18T12:52:07.554Z,100693.63
2023-04-18T12:54:41.312Z,100686.91
2023-04-18T12:57:16.024Z,100681.78
2023-04-18T12:59:46.893Z,100681.75
2023-04-18T13:02:20.439Z,100679.75
2023-04-18T13:04:53.033Z,100675.72
2023-04-18T13:07:24.213Z,100672.88
2023-04-18T13:09:55.243Z,100673.28
2023-04-18T13:12:31.352Z,100672.06
2023-04-18T13:15:15.714Z,100674.09
2023-04-18T13:17:47.423Z,100668.03
2023-04-18T13:20:17.701Z,100666.00
2023-04-18T13:22:57.348Z,100672.88
2023-04-18T13:25:34.083Z,100677.72
2023-04-18T13:28:07.439Z,100664.00
2023-04-18T13:30:43.074Z,100674.50
2023-04-18T13:33:23.299Z,100672.88
2023-04-18T13:35:51.407Z,100670.88
2023-04-18T13:38:31.083Z,100666.41
2023-04-18T13:41:11.542Z,100668.03
2023-04-18T13:43:43.724Z,100671.66
2023-04-18T13:46:14.922Z,100662.75
2023-04-18T13:48:47.971Z,100663.19
2023-04-18T13:51:20.425Z,100670.44
2023-04-18T13:53:54.775Z,100670.88
2023-04-18T13:56:28.366Z,100668.03
2023-04-18T13:58:59.941Z,100675.31
2023-04-18T14:01:28.141Z,100677.34
2023-04-18T14:03:56.535Z,100669.66
2023-04-18T14:06:38.382Z,100672.06
2023-04-18T14:09:09.471Z,100670.06
2023-04-18T14:11:47.825Z,100669.63
2023-04-18T14:14:18.562Z,100675.69
2023-04-18T14:16:47.715Z,100676.09
2023-04-18T14:19:23.974Z,100677.31
2023-04-18T14:21:55.464Z,100675.69
2023-04-18T14:24:28.099Z,100675.28
2023-04-18T14:27:03.530Z,100674.88
2023-04-18T14:29:31.762Z,100674.06
2023-04-18T14:31:59.820Z,100672.09
2023-04-18T14:34:38.898Z,100673.63
2023-04-18T14:37:12.410Z,100672.88
2023-04-18T14:39:54.557Z,100674.09
2023-04-18T14:42:30.111Z,100671.63
2023-04-18T14:45:00.373Z,100667.59
2023-04-18T14:47:31.872Z,100665.97
2023-04-18T14:50:02.727Z,100665.56
2023-04-18T14:52:31.410Z,100660.72
2023-04-18T14:55:00.539Z,100662.75
2023-04-18T14:57:31.374Z,100656.66
2023-04-18T15:00:07.501Z,100656.25
2023-04-18T15:02:36.395Z,100662.72
2023-04-18T15:05:04.999Z,100654.25
2023-04-18T15:07:33.949Z,100655.88
2023-04-18T15:10:05.757Z,100670.03
2023-04-18T15:12:37.691Z,100665.59
2023-04-18T15:15:06.865Z,100654.63
2023-04-18T15:17:40.423Z,100653.81
2023-04-18T15:20:16.584Z,100657.09
2023-04-18T15:22:47.592Z,100656.28
2023-04-18T15:25:19.889Z,100655.06
2023-04-18T15:27:51.564Z,100661.91
2023-04-18T15:30:22.865Z,100664.75
2023-04-18T15:32:56.720Z,100668.78
2023-04-18T15:35:25.809Z,100663.50
2023-04-18T15:37:54.142Z,100659.47
2023-04-18T15:40:25.151Z,100662.72
2023-04-18T15:42:54.505Z,100663.50
2023-04-18T15:45:25.923Z,100659.81
2023-04-18T15:47:56.542Z,100667.09
2023-04-18T15:50:30.827Z,100669.50
2023-04-18T15:53:07.795Z,100667.06
2023-04-18T15:55:38.374Z,100671.91
2023-04-18T15:58:06.701Z,100672.31
2023-04-18T16:00:41.308Z,100665.03
2023-04-18T16:03:23.453Z,100671.91
2023-04-18T16:05:56.941Z,100671.91
2023-04-18T16:08:31.967Z,100681.22
2023-04-18T16:11:09.078Z,100676.78
2023-04-18T16:13:38.313Z,100676.75
2023-04-18T16:16:09.548Z,100683.59
2023-04-18T16:18:38.321Z,100684.00
2023-04-18T16:21:06.258Z,100689.25
2023-04-18T16:23:37.017Z,100684.84
2023-04-18T16:26:08.632Z,100692.16
2023-04-18T16:28:42.276Z,100689.75
2023-04-18T16:31:16.632Z,100699.50
2023-04-18T16:33:51.756Z,100697.50
2023-04-18T16:36:28.133Z,100698.28
2023-04-18T16:39:01.165Z,100704.41
2023-04-18T16:41:39.882Z,100704.00
2023-04-18T16:44:10.669Z,100706.84
2023-04-18T16:46:43.894Z,100702.78
2023-04-18T16:49:12.721Z,100704.03
2023-04-18T16:51:46.793Z,100708.88
2023-04-18T16:54:17.938Z,100708.03
2023-04-18T16:56:53.627Z,100714.94
2023-04-18T16:59:26.095Z,100714.94
2023-04-18T17:02:01.560Z,100715.31
2023-04-18T17:04:36.666Z,100718.97
2023-04-18T17:07:08.167Z,100727.03
2023-04-18T17:09:38.633Z,100721.38
2023-04-18T17:12:17.177Z,100727.44
2023-04-18T17:14:58.679Z,100727.03
2023-04-18T17:17:38.573Z,100721.78
2023-04-18T17:20:12.523Z,100728.25
2023-04-18T17:22:46.747Z,100731.88
2023-04-18T17:25:26.012Z,100730.25
2023-04-18T17:28:05.596Z,100730.25
2023-04-18T17:30:42.815Z,100733.50
2023-04-18T17:33:23.798Z,100731.06
2023-04-18T17:35:57.325Z,100733.06
2023-04-18T17:38:30.774Z,100739.16
2023-04-18T17:41:11.285Z,100742.78
2023-04-18T17:43:44.896Z,100738.34
2023-04-18T17:46:18.797Z,100741.19
2023-04-18T17:48:59.846Z,100746.41
2023-04-18T17:51:35.079Z,100743.56
2023-04-18T17:54:11.211Z,100745.19
2023-04-18T17:56:53.433Z,100749.22
2023-04-18T17:59:29.621Z,100751.25
2023-04-18T18:02:04.707Z,100753.66
2023-04-18T18:04:42.671Z,100757.72
2023-04-18T18:07:16.204Z,100764.19
2023-04-18T18:09:52.685Z,100771.06
2023-04-18T18:12:30.755Z,100766.19
2023-04-18T18:15:07.811Z,100764.56
2023-04-18T18:17:42.957Z,100764.56
2023-04-18T18:20:17.705Z,100778.69
2023-04-18T18:22:51.575Z,100780.72
2023-04-18T18:25:36.411Z,100781.50
2023-04-18T18:28:13.996Z,100787.59
2023-04-18T18:30:50.023Z,100794.03
2023-04-18T18:33:28.842Z,100785.56
2023-04-18T18:36:09.878Z,100800.06
2023-04-18T18:38:53.212Z,100808.56
2023-04-18T18:41:34.086Z,100806.09
2023-04-18T18:44:11.684Z,100808.56
2023-04-18T18:46:43.226Z,100814.63
2023-04-18T18:49:23.655Z,100816.19
2023-04-18T18:51:57.021Z,100824.25
2023-04-18T18:54:37.348Z,100825.47
2023-04-18T18:57:10.661Z,100831.13
2023-04-18T18:59:50.100Z,100835.16
2023-04-18T19:02:32.023Z,100832.34
2023-04-18T19:05:09.329Z,100840.03
2023-04-18T19:07:50.948Z,100839.19
2023-04-18T19:10:22.007Z,100850.09
2023-04-18T19:13:03.479Z,100844.44
2023-04-18T19:15:41.797Z,100851.72
2023-04-18T19:18:12.803Z,100852.94
2023-04-18T19:20:50.365Z,100852.09
2023-04-18T19:23:31.003Z,100863.41
2023-04-18T19:26:04.270Z,100865.41
2023-04-18T19:28:45.878Z,100862.19
2023-04-18T19:31:23.818Z,100866.63
2023-04-18T19:33:58.451Z,100869.44
2023-04-18T19:36:37.062Z,100879.94
2023-04-18T19:39:09.769Z,100866.59
2023-04-18T19:41:46.566Z,100874.25
2023-04-18T19:44:21.035Z,100875.06
2023-04-18T19:46:58.510Z,100879.50
2023-04-18T19:49:35.032Z,100884.34
2023-04-18T19:52:06.423Z,100888.78
2023-04-18T19:54:47.594Z,100896.47
2023-04-18T19:57:29.417Z,100890.81
2023-04-18T20:00:03.752Z,100895.66
2023-04-18T20:02:51.830Z,100898.06
2023-04-18T20:05:31.226Z,100897.25
2023-04-18T20:08:04.158Z,100894.03
2023-04-18T20:10:36.642Z,100900.88
2023-04-18T20:13:16.626Z,100902.09
2023-04-18T20:15:50.527Z,100906.53
2023-04-18T20:18:29.494Z,100913.41
2023-04-18T20:21:09.815Z,100906.53
2023-04-18T20:23:46.805Z,100912.19
2023-04-18T20:26:20.772Z,100913.41
2023-04-18T20:28:57.985Z,100926.72
2023-04-18T20:31:41.782Z,100916.63
2023-04-18T20:34:19.143Z,100930.34
2023-04-18T20:36:55.594Z,100922.66
2023-04-18T20:39:31.797Z,100928.28
2023-04-18T20:42:14.237Z,100922.22
2023-04-18T20:44:50.531Z,100929.09
2023-04-18T20:47:23.380Z,100927.47
2023-04-18T20:50:01.579Z,100933.13
2023-04-18T20:52:30.389Z,100930.69
2023-04-18T20:55:03.289Z,100935.16
2023-04-18T20:57:42.416Z,100933.94
2023-04-18T21:00:23.776Z,100941.19
2023-04-18T21:03:00.113Z,100939.97
2023-04-18T21:05:37.263Z,100946.03
2023-04-18T21:08:12.878Z,100946.84
2023-04-18T21:10:49.716Z,100946.47
2023-04-18T21:13:25.170Z,100953.28
2023-04-18T21:16:03.633Z,100957.75
2023-04-18T21:18:36.723Z,100957.31
2023-04-18T21:21:12.573Z,100963.41
2023-04-18T21:23:51.520Z,100959.38
2023-04-18T21:26:28.280Z,100956.94
2023-04-18T21:29:08.334Z,100958.53
2023-04-18T21:31:38.443Z,100956.91
2023-04-18T21:34:18.054Z,100959.72
2023-04-18T21:36:48.916Z,100967.81
2023-04-18T21:39:28.302Z,100969.84
2023-04-18T21:42:03.967Z,100964.19
2023-04-18T21:44:45.167Z,100968.22
2023-04-18T21:47:20.622Z,100972.66
2023-04-18T21:49:55.597Z,100969.41
2023-04-18T21:52:30.307Z,100968.19
2023-04-18T21:55:12.596Z,100966.22
2023-04-18T21:57:48.721Z,100965.81
2023-04-18T22:00:22.233Z,100964.59
2023-04-18T22:02:55.664Z,100960.97
2023-04-18T22:05:33.335Z,100969.88
2023-04-18T22:08:10.179Z,100968.22
2023-04-18T22:10:42.107Z,100961.38
2023-04-18T22:13:19.011Z,100961.38
2023-04-18T22:15:53.059Z,100973.44
2023-04-18T22:18:26.248Z,100967.81
2023-04-18T22:21:02.625Z,100965.78
2023-04-18T22:23:44.551Z,100975.03
2023-04-18T22:26:17.774Z,100976.66
2023-04-18T22:28:50.902Z,100981.13
2023-04-18T22:31:25.404Z,100968.97
2023-04-18T22:33:58.163Z,100975.47
2023-04-18T22:36:38.048Z,100967.00
2023-04-18T22:39:13.991Z,100978.69
2023-04-18T22:41:53.010Z,100981.50
2023-04-18T22:44:26.680Z,100979.47
2023-04-18T22:47:07.057Z,100976.28
2023-04-18T22:49:37.332Z,100978.31
2023-04-18T22:52:14.333Z,100983.50
2023-04-18T22:54:54.174Z,100979.88
2023-04-18T22:57:30.777Z,100983.09
2023-04-18T23:00:05.061Z,100978.66
2023-04-18T23:02:49.276Z,100986.34
2023-04-18T23:05:26.928Z,100985.09
2023-04-18T23:08:04.551Z,100987.53
2023-04-18T23:10:46.104Z,100981.03
2023-04-18T23:13:20.407Z,100991.16
2023-04-18T23:15:58.532Z,100987.13
2023-04-18T23:18:30.192Z,100983.50
2023-04-18T23:21:02.789Z,100983.06
2023-04-18T23:23:34.167Z,100988.31
2023-04-18T23:26:17.614Z,100985.88
2023-04-18T23:28:52.128Z,100981.44
2023-04-18T23:31:27.706Z,100977.81
2023-04-18T23:34:06.388Z,100981.44
2023-04-18T23:36:43.101Z,100977.81
2023-04-18T23:39:22.287Z,100985.09
2023-04-18T23:41:55.657Z,100977.41
2023-04-18T23:44:29.954Z,100975.81
2023-04-18T23:47:03.989Z,100973.78
2023-04-18T23:49:41.322Z,100972.56
2023-04-18T23:52:17.311Z,100973.81
2023-04-18T23:54:56.346Z,100968.94
2023-04-18T23:57:35.208Z,100965.72
